Arrowsic, Maine
Current Conditions -  °F | °C
As of 2:53 PM on Monday 22 Dec 2014 (Local Time) from KIWI Reporting Station
Overcast Overcast  
Wind Chill: 36°   Ceiling: 5500
Heat Index: 39°   Visibility: 10mi
Dew Point: 32°   Wind: 5mph
Humidity: 76%   Direction: 80°E
Pressure: 30.4"   Gusts: NA
Location:  43.8797°N, 69.8408°W
Report Text: KIWI 221953Z AUTO 08004KT 10SM OVC055 04/00 A3040 RMK AO2 SLP296 T00390000
Loading
Personal Weather Stations






























Interactive Weather Map New forecast layout! Learn more

10-Day Weather Forecast

Advertisements
Track Severe Weather on mobile